• Join FlightAware (Why Join?)
  • Login
  • US Flag 
10:45PM EST


 

Airport Tracker/Info


-or-


 

Live Flight TrackerFlight Track Log ✈ AAL1374 ✈ 09-May-2013 ✈ KDFW - KPBI

Flight Track Log - Related Links

Times and Time Zones

All times are in EDT time to prevent confusion due to time zone crossing. See the AAL1374 flight status page for this flight to view local times or setup timezone preferences in your user account.

Time Position Orientation Groundspeed Altitude Reporting Facility
EDT Latitude Longitude Course Direction KTS MPH feet Rate Location/Type
02:18PM 32.8833 -97.0333 84° East 155 178 1,400  Level Dallas / Fort Worth TRACON
02:19PM 32.8333 -97.0000 151° Southeast 217 250 2,600 1,680 Climbing Dallas / Fort Worth TRACON
02:20PM 32.7667 -96.9833 168° South 246 283 4,600 2,160 Climbing Dallas / Fort Worth TRACON
02:21PM 32.6842 -96.7785 77° East  Level FlightAware Approximate
02:21PM 32.7333 -96.9167 121° Southeast 267 307 7,000  Level Dallas / Fort Worth TRACON
02:22PM 32.7123 -96.6291 77° East  Level FlightAware Approximate
02:22PM 32.7333 -96.8333 90° East 277 319 9,500  Level Dallas / Fort Worth TRACON
02:23PM 32.7365 -96.4790 84° East  Level FlightAware Approximate
02:23PM 32.7500 -96.7333 79° East 308 354 11,400  Level Dallas / Fort Worth TRACON
02:24PM 32.7492 -96.3266 84° East  Level FlightAware Approximate
02:25PM 32.7514 -96.5736 89° East 360 414 14,400  Level Fort Worth Center
02:26PM 32.7564 -96.4353 88° East 373 429 16,900 2,280 Climbing Fort Worth Center
02:27PM 32.7578 -96.3192 89° East 385 443 19,000 1,920 Climbing Fort Worth Center
02:28PM 32.7375 -96.1786 100° East 391 450 20,800 1,860 Climbing Fort Worth Center
02:29PM 32.7156 -96.0553 102° East 411 473 22,800 1,800 Climbing Fort Worth Center
02:30PM 32.6928 -95.9003 100° East 427 491 24,400 1,560 Climbing Fort Worth Center
02:31PM 32.6703 -95.7672 101° East 440 506 26,000 1,560 Climbing Fort Worth Center
02:32PM 32.6450 -95.6050 100° East 455 524 27,600 1,380 Climbing Fort Worth Center
02:33PM 32.6197 -95.4550 101° East 461 531 28,800 1,140 Climbing Fort Worth Center
02:34PM 32.6067 -95.2925 95° East 475 547 29,900 1,080 Climbing Fort Worth Center
02:35PM 32.6061 -95.1322 90° East 481 554 31,000 540 Climbing Fort Worth Center
02:36PM 32.6053 -94.9719 90° East 486 559 31,000  Level Fort Worth Center
02:37PM 32.6733 -94.8344 60° Northeast 469 540 31,000  Level Fort Worth Center
02:38PM 32.6700 -94.6789 91° East 462 532 31,000  Level Fort Worth Center
02:39PM 32.6186 -94.5253 112° Southeast 466 536 31,000  Level Fort Worth Center
02:40PM 32.5692 -94.3764 111° Southeast 472 543 31,000  Level Fort Worth Center
02:41PM 32.5175 -94.2303 113° Southeast 482 555 31,000  Level Fort Worth Center
02:42PM 32.4617 -94.0869 115° Southeast 482 555 31,000  Level Fort Worth Center
02:43PM 32.3853 -93.9594 125° Southeast 482 555 31,000  Level Fort Worth Center
02:45PM 32.1950 -93.6481 126° Southeast 482 555 31,000  Level Houston Center
02:46PM 32.1150 -93.5175 126° Southeast 483 556 31,000  Level Houston Center
02:47PM 32.0356 -93.3881 126° Southeast 485 558 31,000  Level Houston Center
02:48PM 31.9558 -93.2603 126° Southeast 484 557 31,000  Level Houston Center
02:49PM 31.8747 -93.1319 127° Southeast 487 560 31,000  Level Houston Center
02:50PM 31.7919 -92.9989 126° Southeast 490 564 31,000 -60 Level Houston Center
02:51PM 31.7106 -92.8658 126° Southeast 497 572 30,900 -60 Descending Houston Center
02:52PM 31.6300 -92.7389 127° Southeast 488 562 30,900  Level Houston Center
02:53PM 31.5328 -92.5836 126° Southeast 490 564 31,000  Climbing Houston Center
02:54PM 31.4506 -92.4542 127° Southeast 493 567 30,900  Descending Houston Center
02:56PM 31.3689 -92.3236 126° Southeast 496 571 31,000  Climbing Houston Center
02:57PM 31.2858 -92.1931 127° Southeast 498 573 31,000 -60 Level Houston Center
02:58PM 31.2022 -92.0631 127° Southeast 499 574 30,900  Descending Houston Center
02:59PM 31.1158 -91.9275 127° Southeast 501 577 31,000  Climbing Houston Center
03:00PM 31.0331 -91.7981 127° Southeast 497 572 31,000  Level Houston Center
03:01PM 30.9328 -91.6431 127° Southeast 499 574 31,000  Level Houston Center
03:02PM 30.8492 -91.5139 127° Southeast 500 575 31,000  Level Houston Center
03:03PM 30.7658 -91.3844 127° Southeast 500 575 31,000  Level Houston Center
03:04PM 30.6731 -91.2408 127° Southeast 500 575 31,000 -60 Level Houston Center
03:05PM 30.5897 -91.1131 127° Southeast 499 574 30,900  Descending Houston Center
03:06PM 30.5056 -90.9875 128° Southeast 495 570 31,000  Climbing Houston Center
03:07PM 30.4222 -90.8603 127° Southeast 496 571 31,000  Level Houston Center
03:08PM 30.3378 -90.7350 128° Southeast 496 571 31,000  Level Houston Center
03:09PM 30.2556 -90.6108 127° Southeast 491 565 31,000  Level Houston Center
03:10PM 30.1556 -90.4600 127° Southeast 495 570 31,000  Level Houston Center
03:11PM 30.0725 -90.3369 128° Southeast 492 566 31,000 -60 Level Houston Center
03:12PM 29.9897 -90.2114 127° Southeast 494 568 30,900  Descending Houston Center
03:13PM 29.9058 -90.0878 128° Southeast 495 570 31,000  Climbing Houston Center
03:14PM 29.8050 -89.9425 129° Southeast 490 564 31,000  Level Houston Center
03:15PM 29.7178 -89.8231 130° Southeast 489 563 31,000 -60 Level Houston Center
03:16PM 29.6306 -89.7061 131° Southeast 486 559 30,900  Descending Houston Center
03:17PM 29.5439 -89.5872 130° Southeast 488 562 31,000  Climbing Houston Center
03:18PM 29.4558 -89.4647 130° Southeast 496 571 31,000  Level Houston Center
03:19PM 29.3494 -89.3225 131° Southeast 493 567 31,000 -60 Level Houston Center
03:20PM 29.2600 -89.2025 130° Southeast 494 568 30,900  Descending Houston Center
03:21PM 29.1706 -89.0836 131° Southeast 495 570 31,000  Climbing Houston Center
03:22PM 29.0814 -88.9644 131° Southeast 495 570 31,000  Level Houston Center
03:23PM 28.9908 -88.8447 131° Southeast 497 572 31,000  Level Houston Center
03:25PM 28.9017 -88.7247 130° Southeast 496 571 31,000  Level Houston Center
03:26PM 28.8400 -88.5494 112° Southeast 498 573 31,000  Level Houston Center
03:27PM 28.7975 -88.3997 108° East 495 570 31,000  Level Houston Center
03:28PM 28.7578 -88.2467 106° East 501 577 31,000  Level Houston Center
03:29PM 28.7142 -88.0986 109° East 497 572 31,000  Level Houston Center
03:30PM 28.6736 -87.9489 107° East 498 573 31,000  Level Houston Center
03:31PM 28.6239 -87.7708 108° East 496 571 31,000 -60 Level Houston Center
03:32PM 28.5814 -87.6225 108° East 494 568 30,900 -120 Descending Houston Center
03:32PM 28.5658 -87.5628 107° East 489 563 30,900 60 Level Jacksonville Center
03:33PM 28.5231 -87.4142 108° East 482 555 31,000  Climbing Jacksonville Center
03:34PM 28.4822 -87.2683 108° East 492 566 31,000  Level Jacksonville Center
03:35PM 28.4392 -87.1225 109° East 491 565 31,000  Level Jacksonville Center
03:36PM 28.3939 -86.9744 109° East 486 559 31,000  Level Jacksonville Center
03:37PM 28.3525 -86.8289 108° East 488 562 31,000  Level Jacksonville Center
03:38PM 28.3111 -86.6858 108° East 488 562 31,000 -60 Level Jacksonville Center
03:39PM 28.2653 -86.5333 109° East 494 568 30,900  Descending Jacksonville Center
03:40PM 28.2214 -86.3833 108° East 494 568 31,000  Climbing Jacksonville Center
03:41PM 28.1794 -86.2408 108° East 494 568 30,900 -60 Descending Jacksonville Center
03:42PM 28.1353 -86.0911 108° East 489 563 30,900  Level Jacksonville Center
03:43PM 28.0908 -85.9436 109° East 489 563 31,000  Climbing Jacksonville Center
03:44PM 28.0464 -85.7919 108° East 495 570 31,000 -60 Level Jacksonville Center
03:45PM 28.0017 -85.6403 108° East 495 570 30,900  Descending Jacksonville Center
03:46PM 27.9547 -85.4908 110° East 495 570 31,000  Climbing Jacksonville Center
03:48PM 27.8769 -85.1989 107° East 500 575 30,900  Descending Miami Center
03:49PM 27.8447 -85.0347 102° East 491 565 31,000  Climbing Miami Center
03:50PM 27.8167 -84.8686 101° East 496 571 31,000  Level Miami Center
03:51PM 27.7897 -84.7122 101° East 496 571 31,000  Level Miami Center
03:52PM 27.7586 -84.5578 103° East 496 571 31,000  Level Miami Center
03:53PM 27.7375 -84.4039 99° East 496 571 31,000  Level Miami Center
03:54PM 27.7100 -84.2500 101° East 496 571 31,000 -60 Level Miami Center
03:55PM 27.6825 -84.0958 101° East 491 565 30,900 -60 Descending Miami Center
03:56PM 27.6544 -83.9467 102° East 491 565 30,900  Level Miami Center
03:57PM 27.6286 -83.7928 101° East 491 565 31,000  Climbing Miami Center
03:58PM 27.6042 -83.6461 101° East 491 565 31,000  Level Miami Center
03:59PM 27.5778 -83.4972 101° East 485 558 31,000 -300 Level Miami Center
04:00PM 27.5278 -83.3586 112° Southeast 485 558 30,500 -780 Descending Miami Center
04:01PM 27.4608 -83.2261 120° Southeast 476 548 29,500 -1,020 Descending Miami Center
04:02PM 27.3956 -83.0964 120° Southeast 481 554 28,500 -1,020 Descending Miami Center
04:03PM 27.3342 -82.9717 119° Southeast 475 547 27,500 -960 Descending Miami Center
04:04PM 27.2742 -82.8586 121° Southeast 470 541 26,600 -1,020 Descending Miami Center
04:05PM 27.2144 -82.7367 119° Southeast 456 525 25,500 -1,080 Descending Miami Center
04:06PM 27.1567 -82.6194 119° Southeast 444 511 24,500 -840 Descending Miami Center
04:07PM 27.0906 -82.4903 120° Southeast 433 498 23,900 -660 Descending Miami Center
04:08PM 27.0344 -82.3756 119° Southeast 427 491 23,200 -840 Descending Miami Center
04:09PM 26.9803 -82.2683 120° Southeast 432 497 22,300 -960 Descending Miami Center
04:10PM 26.9217 -82.1561 120° Southeast 432 497 21,300 -1,020 Descending Miami Center
04:11PM 26.8650 -82.0464 120° Southeast 426 490 20,300 -1,020 Descending Miami Center
04:12PM 26.8064 -81.9344 120° Southeast 419 482 19,300 -660 Descending Miami Center
04:13PM 26.7519 -81.8253 119° Southeast 412 474 19,000 -180 Descending Miami Center
04:14PM 26.6969 -81.7206 120° Southeast 407 468 19,000  Level Miami Center
04:15PM 26.7014 -81.5836 88° East 377 434 19,000 -540 Level Miami Center
04:16PM 26.7281 -81.4661 76° East 370 426 18,000 -1,080 Descending Miami Center
04:17PM 26.7544 -81.3556 75° East 370 426 16,900 -1,740 Descending Miami Center
04:18PM 26.7786 -81.2542 75° East 375 432 14,600 -1,980 Descending Miami Center
04:19PM 26.8047 -81.1436 75° East 375 432 13,000 -1,740 Descending Miami Center
04:20PM 26.8228 -81.0256 80° East 360 414 11,200 -1,500 Descending Miami Center
04:21PM 26.8319 -80.9258 84° East 339 390 10,000 -600 Descending Miami Center
04:22PM 26.8303 -80.8397 91° East 312 359 10,000 -360 Level Miami Center
04:23PM 26.8014 -80.7503 110° East 297 342 9,300 -1,080 Descending Miami Center
04:24PM 26.7658 -80.6653 115° Southeast 302 348 7,900 -1,380 Descending Miami Center
04:25PM 26.7350 -80.5714 110° East 297 342 6,600 -1,140 Descending Miami Center
04:26PM 26.7056 -80.5006 115° Southeast 290 334 5,700 -1,020 Descending Miami Center
04:27PM 26.6972 -80.4144 96° East 258 297 4,600 -960 Descending Miami Center
04:28PM 26.6906 -80.3375 96° East 253 291 3,800 -840 Descending Miami Center